createdAt,value
2019-05-10T00:00:53.653Z,14.56
2019-05-10T00:01:53.692Z,14.57
2019-05-10T00:02:53.635Z,14.56
2019-05-10T00:03:53.625Z,14.57
2019-05-10T00:04:53.621Z,14.56
2019-05-10T00:05:53.600Z,14.57
2019-05-10T00:06:53.588Z,14.55
2019-05-10T00:07:53.587Z,14.56
2019-05-10T00:08:53.570Z,14.55
2019-05-10T00:09:53.557Z,14.55
2019-05-10T00:10:53.557Z,14.55
2019-05-10T00:11:53.536Z,14.55
2019-05-10T00:12:53.526Z,14.54
2019-05-10T00:13:53.526Z,14.55
2019-05-10T00:14:53.504Z,14.55
2019-05-10T00:15:53.493Z,14.56
2019-05-10T00:16:53.496Z,14.54
2019-05-10T00:17:53.473Z,14.54
2019-05-10T00:18:53.461Z,14.54
2019-05-10T00:19:53.470Z,14.54
2019-05-10T00:20:53.440Z,14.54
2019-05-10T00:21:53.432Z,14.53
2019-05-10T00:22:53.440Z,14.53
2019-05-10T00:23:53.417Z,14.54
2019-05-10T00:25:03.833Z,14.54
2019-05-10T00:25:54.411Z,14.54
2019-05-10T00:26:53.377Z,14.53
2019-05-10T00:27:53.366Z,14.52
2019-05-10T00:28:53.369Z,14.54
2019-05-10T00:29:53.347Z,14.53
2019-05-10T00:30:53.335Z,14.52
2019-05-10T00:31:53.358Z,14.52
2019-05-10T00:32:53.313Z,14.52
2019-05-10T00:33:53.310Z,14.51
2019-05-10T00:34:53.301Z,14.51
2019-05-10T00:35:53.280Z,14.50
2019-05-10T00:36:53.276Z,14.49
2019-05-10T00:37:53.271Z,14.48
2019-05-10T00:38:53.248Z,14.46
2019-05-10T00:39:53.242Z,14.46
2019-05-10T00:40:53.236Z,14.46
2019-05-10T00:41:53.216Z,14.46
2019-05-10T00:42:53.209Z,14.47
2019-05-10T00:43:53.232Z,14.46
2019-05-10T00:44:53.189Z,14.47
2019-05-10T00:45:53.175Z,14.46
2019-05-10T00:46:53.172Z,14.47
2019-05-10T00:47:53.151Z,14.48
2019-05-10T00:48:53.140Z,14.49
2019-05-10T00:49:53.150Z,14.48
2019-05-10T00:50:53.118Z,14.46
2019-05-10T00:51:53.110Z,14.46
2019-05-10T00:52:53.106Z,14.44
2019-05-10T00:53:53.086Z,14.43
2019-05-10T00:54:53.075Z,14.43
2019-05-10T00:55:53.074Z,14.42
2019-05-10T00:56:53.055Z,14.41
2019-05-10T00:57:53.044Z,14.38
2019-05-10T00:58:53.045Z,14.36
2019-05-10T00:59:53.021Z,14.34
2019-05-10T01:00:53.014Z,14.32
2019-05-10T01:01:53.012Z,14.28
2019-05-10T01:02:52.991Z,14.23
2019-05-10T01:03:52.978Z,14.19
2019-05-10T01:04:52.977Z,14.16
2019-05-10T01:05:52.958Z,14.11
2019-05-10T01:06:56.231Z,14.07
2019-05-10T01:07:52.950Z,14.03
2019-05-10T01:08:52.933Z,13.99
2019-05-10T01:09:52.928Z,13.96
2019-05-10T01:10:52.923Z,13.92
2019-05-10T01:11:52.892Z,13.89
2019-05-10T01:12:52.881Z,13.85
2019-05-10T01:13:52.896Z,13.82
2019-05-10T01:14:52.861Z,13.80
2019-05-10T01:15:52.849Z,13.76
2019-05-10T01:16:52.856Z,13.74
2019-05-10T01:17:52.825Z,13.71
2019-05-10T01:18:52.816Z,13.69
2019-05-10T01:19:52.906Z,13.66
2019-05-10T01:20:52.800Z,13.65
2019-05-10T01:21:52.782Z,13.62
2019-05-10T01:22:52.795Z,13.60
2019-05-10T01:23:52.760Z,13.56
2019-05-10T01:24:52.754Z,13.55
2019-05-10T01:25:52.759Z,13.53
2019-05-10T01:26:52.728Z,13.50
2019-05-10T01:27:52.718Z,13.48
2019-05-10T01:28:52.716Z,13.47
2019-05-10T01:29:52.695Z,13.44
2019-05-10T01:30:52.685Z,13.42
2019-05-10T01:31:52.687Z,13.40
2019-05-10T01:32:52.663Z,13.37
2019-05-10T01:33:52.652Z,13.36
2019-05-10T01:34:52.702Z,13.33
2019-05-10T01:35:52.631Z,13.32
2019-05-10T01:36:52.620Z,13.29
2019-05-10T01:37:52.622Z,13.28
2019-05-10T01:38:52.598Z,13.26
2019-05-10T01:39:52.588Z,13.22
2019-05-10T01:40:52.588Z,13.21
2019-05-10T01:41:52.566Z,13.16
2019-05-10T01:42:52.568Z,13.15
2019-05-10T01:43:52.555Z,13.12
2019-05-10T01:44:52.533Z,13.10
2019-05-10T01:45:52.523Z,13.08
2019-05-10T01:46:52.523Z,13.06
2019-05-10T01:47:52.502Z,13.04
2019-05-10T01:48:52.496Z,13.02
2019-05-10T01:49:52.492Z,12.99
2019-05-10T01:50:52.479Z,12.97
2019-05-10T01:51:52.459Z,12.95
2019-05-10T01:52:52.473Z,12.94
2019-05-10T01:53:52.437Z,12.91
2019-05-10T01:54:52.427Z,12.89
2019-05-10T01:55:53.053Z,12.88
2019-05-10T01:56:52.410Z,12.85
2019-05-10T01:57:52.396Z,12.83
2019-05-10T01:58:52.395Z,12.81
2019-05-10T01:59:52.374Z,12.79
2019-05-10T02:00:52.365Z,12.79
2019-05-10T02:01:52.374Z,12.77
2019-05-10T02:02:52.342Z,12.76
2019-05-10T02:03:52.336Z,12.74
2019-05-10T02:04:52.335Z,12.71
2019-05-10T02:05:52.309Z,12.69
2019-05-10T02:06:52.299Z,12.68
2019-05-10T02:07:52.298Z,12.66
2019-05-10T02:08:52.278Z,12.64
2019-05-10T02:09:52.267Z,12.62
2019-05-10T02:10:52.266Z,12.61
2019-05-10T02:11:52.245Z,12.58
2019-05-10T02:12:52.238Z,12.57
2019-05-10T02:13:52.236Z,12.56
2019-05-10T02:14:52.212Z,12.55
2019-05-10T02:15:52.201Z,12.54
2019-05-10T02:16:52.210Z,12.52
2019-05-10T02:17:52.178Z,12.51
2019-05-10T02:18:52.168Z,12.52
2019-05-10T02:19:52.167Z,12.52
2019-05-10T02:20:52.146Z,12.51
2019-05-10T02:21:52.135Z,12.54
2019-05-10T02:22:52.134Z,12.56
2019-05-10T02:23:52.114Z,12.60
2019-05-10T02:24:52.103Z,12.64
2019-05-10T02:26:08.042Z,12.67
2019-05-10T02:26:53.080Z,12.70
2019-05-10T02:27:52.069Z,12.75
2019-05-10T02:28:52.072Z,12.78
2019-05-10T02:29:52.047Z,12.80
2019-05-10T02:30:52.055Z,12.83
2019-05-10T02:31:52.039Z,12.86
2019-05-10T02:32:52.016Z,12.90
2019-05-10T02:33:52.006Z,12.92
2019-05-10T02:34:52.005Z,12.95
2019-05-10T02:35:51.987Z,12.96
2019-05-10T02:36:51.973Z,12.99
2019-05-10T02:37:51.982Z,13.02
2019-05-10T02:38:51.953Z,13.06
2019-05-10T02:39:51.977Z,13.08
2019-05-10T02:40:51.943Z,13.11
2019-05-10T02:41:51.918Z,13.12
2019-05-10T02:42:51.912Z,13.16
2019-05-10T02:43:51.925Z,13.16
2019-05-10T02:44:51.889Z,13.20
2019-05-10T02:45:51.876Z,13.22
2019-05-10T02:46:51.877Z,13.23
2019-05-10T02:47:51.854Z,13.24
2019-05-10T02:48:51.854Z,13.25
2019-05-10T02:49:51.854Z,13.27
2019-05-10T02:50:51.824Z,13.27
2019-05-10T02:51:51.815Z,13.26
2019-05-10T02:52:51.815Z,13.26
2019-05-10T02:53:51.792Z,13.28
2019-05-10T02:54:51.782Z,13.28
2019-05-10T02:55:51.789Z,13.29
2019-05-10T02:56:51.759Z,13.31
2019-05-10T02:57:51.749Z,13.31
2019-05-10T02:58:51.750Z,13.32
2019-05-10T02:59:51.729Z,13.33
2019-05-10T03:00:51.722Z,13.34
2019-05-10T03:01:51.719Z,13.33
2019-05-10T03:02:51.699Z,13.33
2019-05-10T03:03:51.686Z,13.34
2019-05-10T03:04:51.686Z,13.35
2019-05-10T03:05:51.670Z,13.36
2019-05-10T03:06:51.655Z,13.37
2019-05-10T03:07:51.665Z,13.38
2019-05-10T03:08:51.631Z,13.39
2019-05-10T03:09:51.622Z,13.42
2019-05-10T03:10:51.622Z,13.43
2019-05-10T03:11:51.602Z,13.43
2019-05-10T03:12:51.591Z,13.43
2019-05-10T03:13:51.599Z,13.45
2019-05-10T03:14:51.570Z,13.45
2019-05-10T03:15:51.559Z,13.46
2019-05-10T03:16:51.587Z,13.46
2019-05-10T03:17:51.538Z,13.49
2019-05-10T03:18:51.531Z,13.48
2019-05-10T03:19:51.534Z,13.50
2019-05-10T03:20:51.505Z,13.49
2019-05-10T03:21:51.495Z,13.51
2019-05-10T03:22:51.495Z,13.50
2019-05-10T03:23:51.485Z,13.50
2019-05-10T03:24:51.463Z,13.49
2019-05-10T03:25:51.483Z,13.49
2019-05-10T03:26:51.835Z,13.49
2019-05-10T03:27:51.432Z,13.48
2019-05-10T03:28:51.578Z,13.46
2019-05-10T03:29:51.410Z,13.45
2019-05-10T03:30:51.402Z,13.43
2019-05-10T03:31:51.413Z,13.42
2019-05-10T03:32:51.382Z,13.39
2019-05-10T03:33:56.403Z,13.36
2019-05-10T03:34:52.547Z,13.34
2019-05-10T03:35:51.356Z,13.32
2019-05-10T03:36:51.339Z,13.30
2019-05-10T03:37:51.345Z,13.26
2019-05-10T03:38:51.314Z,13.25
2019-05-10T03:39:51.309Z,13.23
2019-05-10T03:40:51.305Z,13.22
2019-05-10T03:41:51.284Z,13.21
2019-05-10T03:42:51.272Z,13.20
2019-05-10T03:43:51.278Z,13.18
2019-05-10T03:44:51.253Z,13.18
2019-05-10T03:45:51.241Z,13.18
2019-05-10T03:46:51.240Z,13.18
2019-05-10T03:47:51.220Z,13.16
2019-05-10T03:48:51.219Z,13.16
2019-05-10T03:49:51.228Z,13.16
2019-05-10T03:50:51.185Z,13.16
2019-05-10T03:51:51.180Z,13.15
2019-05-10T03:52:52.481Z,13.14
2019-05-10T03:53:51.155Z,13.13
2019-05-10T03:54:51.143Z,13.14
2019-05-10T03:55:51.146Z,13.15
2019-05-10T03:57:09.192Z,13.15
2019-05-10T03:57:52.130Z,13.14
2019-05-10T03:58:51.103Z,13.14
2019-05-10T03:59:51.092Z,13.14
2019-05-10T04:00:51.079Z,13.13
2019-05-10T04:01:51.082Z,13.16
2019-05-10T04:02:51.072Z,13.15
2019-05-10T04:03:51.058Z,13.15
2019-05-10T04:04:51.036Z,13.15
2019-05-10T04:05:51.026Z,13.14
2019-05-10T04:06:51.040Z,13.15
2019-05-10T04:07:51.013Z,13.18
2019-05-10T04:08:50.992Z,13.16
2019-05-10T04:09:50.997Z,13.18
2019-05-10T04:10:50.976Z,13.20
2019-05-10T04:11:50.967Z,13.20
2019-05-10T04:12:51.040Z,13.21
2019-05-10T04:13:50.950Z,13.22
2019-05-10T04:14:50.962Z,13.22
2019-05-10T04:15:50.932Z,13.23
2019-05-10T04:16:50.907Z,13.22
2019-05-10T04:17:50.896Z,13.24
2019-05-10T04:18:50.888Z,13.24
2019-05-10T04:19:50.890Z,13.26
2019-05-10T04:20:50.863Z,13.26
2019-05-10T04:21:50.872Z,13.26
2019-05-10T04:22:50.843Z,13.27
2019-05-10T04:23:50.832Z,13.28
2019-05-10T04:24:50.823Z,13.29
2019-05-10T04:25:50.821Z,13.29
2019-05-10T04:26:50.801Z,13.30
2019-05-10T04:27:50.800Z,13.31
2019-05-10T04:28:50.778Z,13.32
2019-05-10T04:29:50.771Z,13.33
2019-05-10T04:30:50.756Z,13.35
2019-05-10T04:31:50.755Z,13.34
2019-05-10T04:32:50.737Z,13.36
2019-05-10T04:33:50.736Z,13.37
2019-05-10T04:34:50.718Z,13.39
2019-05-10T04:35:50.705Z,13.41
2019-05-10T04:36:50.693Z,13.42
2019-05-10T04:37:50.692Z,13.44
2019-05-10T04:38:50.681Z,13.46
2019-05-10T04:39:50.675Z,13.46
2019-05-10T04:40:50.652Z,13.48
2019-05-10T04:41:50.649Z,13.48
2019-05-10T04:42:50.637Z,13.49
2019-05-10T04:43:50.632Z,13.48
2019-05-10T04:44:53.568Z,13.48
2019-05-10T04:45:50.612Z,13.48
2019-05-10T04:46:50.591Z,13.49
2019-05-10T04:47:50.577Z,13.49
2019-05-10T04:48:50.565Z,13.49
2019-05-10T04:49:50.581Z,13.49
2019-05-10T04:50:50.543Z,13.49
2019-05-10T04:51:50.544Z,13.49
2019-05-10T04:52:50.522Z,13.48
2019-05-10T04:53:50.518Z,13.48
2019-05-10T04:54:50.504Z,13.47
2019-05-10T04:55:50.499Z,13.45
2019-05-10T04:56:50.484Z,13.45
2019-05-10T04:57:51.467Z,13.44
2019-05-10T04:58:50.459Z,13.45
2019-05-10T04:59:50.453Z,13.46
2019-05-10T05:00:50.437Z,13.46
2019-05-10T05:01:50.453Z,13.46
2019-05-10T05:02:50.416Z,13.49
2019-05-10T05:03:50.421Z,13.48
2019-05-10T05:04:50.396Z,13.50
2019-05-10T05:05:50.385Z,13.52
2019-05-10T05:06:50.373Z,13.57
2019-05-10T05:07:50.377Z,13.63
2019-05-10T05:08:50.362Z,13.69
2019-05-10T05:09:50.353Z,13.75
2019-05-10T05:10:50.345Z,13.78
2019-05-10T05:11:50.320Z,13.83
2019-05-10T05:12:50.309Z,13.89
2019-05-10T05:13:50.309Z,13.94
2019-05-10T05:14:50.288Z,13.96
2019-05-10T05:15:50.293Z,13.96
2019-05-10T05:16:50.268Z,13.95
2019-05-10T05:17:50.255Z,13.94
2019-05-10T05:18:50.245Z,13.94
2019-05-10T05:19:50.244Z,13.93
2019-05-10T05:20:50.224Z,13.96
2019-05-10T05:21:50.233Z,13.97
2019-05-10T05:22:50.205Z,13.99
2019-05-10T05:23:50.192Z,14.00
2019-05-10T05:24:55.127Z,14.00
2019-05-10T05:25:51.181Z,14.01
2019-05-10T05:26:50.164Z,14.00
2019-05-10T05:28:06.410Z,14.00
2019-05-10T05:28:51.144Z,13.98
2019-05-10T05:29:50.128Z,13.99
2019-05-10T05:30:50.119Z,13.99
2019-05-10T05:31:54.156Z,13.98
2019-05-10T05:32:51.114Z,13.97
2019-05-10T05:33:50.089Z,13.96
2019-05-10T05:34:50.082Z,13.96
2019-05-10T05:35:50.141Z,13.95
2019-05-10T05:36:50.054Z,13.94
2019-05-10T05:37:50.056Z,13.92
2019-05-10T05:38:50.050Z,13.91
2019-05-10T05:39:50.022Z,13.89
2019-05-10T05:40:50.035Z,13.87
2019-05-10T05:41:52.149Z,13.87
2019-05-10T05:42:49.990Z,13.86
2019-05-10T05:43:49.988Z,13.85
2019-05-10T05:44:49.989Z,13.82
2019-05-10T05:45:49.962Z,13.80
2019-05-10T05:46:49.948Z,13.78
2019-05-10T05:47:49.937Z,13.77
2019-05-10T05:48:51.577Z,13.75
2019-05-10T05:49:49.961Z,13.76
2019-05-10T05:50:49.924Z,13.76
2019-05-10T05:51:49.896Z,13.80
2019-05-10T05:52:49.884Z,13.82
2019-05-10T05:53:49.978Z,13.85
2019-05-10T05:54:52.925Z,13.89
2019-05-10T05:55:50.878Z,13.93
2019-05-10T05:56:50.522Z,13.95
2019-05-10T05:57:49.831Z,13.98
2019-05-10T05:58:49.824Z,14.01
2019-05-10T05:59:49.810Z,14.04
2019-05-10T06:00:49.813Z,14.08
2019-05-10T06:01:49.816Z,14.12
2019-05-10T06:02:49.781Z,14.17
2019-05-10T06:03:49.767Z,14.25
2019-05-10T06:04:49.757Z,14.30
2019-05-10T06:05:49.746Z,14.38
2019-05-10T06:06:53.660Z,14.44
2019-05-10T06:07:52.227Z,14.52
2019-05-10T06:08:54.535Z,14.57
2019-05-10T06:09:50.702Z,14.66
2019-05-10T06:10:56.424Z,14.71
2019-05-10T06:11:50.681Z,14.80
2019-05-10T06:12:50.718Z,14.90
2019-05-10T06:13:49.681Z,15.01
2019-05-10T06:14:52.202Z,15.13
2019-05-10T06:15:49.637Z,15.24
2019-05-10T06:16:51.050Z,15.35
2019-05-10T06:17:56.534Z,15.46
2019-05-10T06:18:50.615Z,15.51
2019-05-10T06:19:49.607Z,15.55
2019-05-10T06:20:49.586Z,15.57
2019-05-10T06:21:49.578Z,15.60
2019-05-10T06:23:05.515Z,15.60
2019-05-10T06:23:50.550Z,15.60
2019-05-10T06:24:52.335Z,15.62
2019-05-10T06:25:49.537Z,15.65
2019-05-10T06:26:49.526Z,15.65
2019-05-10T06:27:49.508Z,15.67
2019-05-10T06:29:10.485Z,15.68
2019-05-10T06:29:50.496Z,15.70
2019-05-10T06:30:49.497Z,15.72
2019-05-10T06:31:49.473Z,15.73
2019-05-10T06:32:53.098Z,15.73
2019-05-10T06:33:50.441Z,15.74
2019-05-10T06:34:49.432Z,15.77
2019-05-10T06:35:49.431Z,15.79
2019-05-10T06:36:49.411Z,15.80
2019-05-10T06:37:49.411Z,15.83
2019-05-10T06:38:49.391Z,15.85
2019-05-10T06:39:49.401Z,15.85
2019-05-10T06:40:49.388Z,15.83
2019-05-10T06:41:50.128Z,15.76
2019-05-10T06:42:50.346Z,15.72
2019-05-10T06:43:51.368Z,15.64
2019-05-10T06:44:49.329Z,15.58
2019-05-10T06:45:52.444Z,15.55
2019-05-10T06:46:49.304Z,15.51
2019-05-10T06:47:52.915Z,15.51
2019-05-10T06:48:49.283Z,15.51
2019-05-10T06:49:52.102Z,15.54
2019-05-10T06:50:49.263Z,15.60
2019-05-10T06:51:50.978Z,15.66
2019-05-10T06:52:51.940Z,15.72
2019-05-10T06:53:53.660Z,15.83
2019-05-10T06:54:49.221Z,15.92
2019-05-10T06:55:49.218Z,16.00
2019-05-10T06:56:49.199Z,16.08
2019-05-10T06:57:49.874Z,16.21
2019-05-10T06:58:50.189Z,16.45
2019-05-10T06:59:49.167Z,16.74
2019-05-10T07:00:49.157Z,17.20
2019-05-10T07:01:52.021Z,19.01
2019-05-10T07:02:49.134Z,19.62
2019-05-10T07:03:49.124Z,19.91
2019-05-10T07:04:51.015Z,20.72
2019-05-10T07:05:49.102Z,20.88
2019-05-10T07:06:49.107Z,20.67
2019-05-10T07:07:49.088Z,20.39
2019-05-10T07:08:51.636Z,20.20
2019-05-10T07:10:13.239Z,20.22
2019-05-10T07:10:50.050Z,22.91
2019-05-10T07:11:49.040Z,23.17
2019-05-10T07:12:49.037Z,22.70
2019-05-10T07:13:52.750Z,22.31
2019-05-10T07:14:49.006Z,21.98
2019-05-10T07:15:49.013Z,21.71
2019-05-10T07:16:48.984Z,21.49
2019-05-10T07:17:48.973Z,21.26
2019-05-10T07:18:48.964Z,21.06
2019-05-10T07:19:53.596Z,20.90
2019-05-10T07:20:49.953Z,20.80
2019-05-10T07:21:51.251Z,20.76
2019-05-10T07:22:48.922Z,20.73
2019-05-10T07:23:48.911Z,20.63
2019-05-10T07:24:48.900Z,20.50
2019-05-10T07:25:48.897Z,20.32
2019-05-10T07:26:48.891Z,20.12
2019-05-10T07:27:50.451Z,19.89
2019-05-10T07:28:51.783Z,19.65
2019-05-10T07:29:49.846Z,19.43
2019-05-10T07:30:48.838Z,19.22
2019-05-10T07:31:48.836Z,19.03
2019-05-10T07:32:48.823Z,18.87
2019-05-10T07:33:48.802Z,18.71
2019-05-10T07:34:58.304Z,18.51
2019-05-10T07:35:49.780Z,18.30
2019-05-10T07:36:48.770Z,18.10
2019-05-10T07:37:51.800Z,17.90
2019-05-10T07:38:48.763Z,17.73
2019-05-10T07:39:48.737Z,17.57
2019-05-10T07:40:48.727Z,17.43
2019-05-10T07:41:48.720Z,17.30
2019-05-10T07:42:48.705Z,17.23
2019-05-10T07:43:48.706Z,17.17
2019-05-10T07:44:48.896Z,17.11
2019-05-10T07:45:48.674Z,17.05
2019-05-10T07:46:54.325Z,16.99
2019-05-10T07:47:49.650Z,16.97
2019-05-10T07:48:53.551Z,16.94
2019-05-10T07:49:49.651Z,16.89
2019-05-10T07:50:51.645Z,16.85
2019-05-10T07:51:48.611Z,16.78
2019-05-10T07:52:48.605Z,16.69
2019-05-10T07:53:48.586Z,16.61
2019-05-10T07:54:48.713Z,16.52
2019-05-10T07:55:48.590Z,16.43
2019-05-10T07:56:48.560Z,16.37
2019-05-10T07:57:48.543Z,16.31
2019-05-10T07:58:48.532Z,16.28
2019-05-10T07:59:51.026Z,16.24
2019-05-10T08:00:48.509Z,16.20
2019-05-10T08:01:49.269Z,16.14
2019-05-10T08:02:52.744Z,16.05
2019-05-10T08:03:52.441Z,15.98
2019-05-10T08:04:51.318Z,15.89
2019-05-10T08:05:55.202Z,15.83
2019-05-10T08:06:52.081Z,15.77
2019-05-10T08:07:49.534Z,15.71
2019-05-10T08:08:49.690Z,15.66
2019-05-10T08:09:48.818Z,15.61
2019-05-10T08:10:48.874Z,15.54
2019-05-10T08:11:48.573Z,15.47
2019-05-10T08:12:48.545Z,15.40
2019-05-10T08:13:48.661Z,15.33
2019-05-10T08:14:50.137Z,15.29
2019-05-10T08:15:49.029Z,15.23
2019-05-10T08:16:49.866Z,15.17
2019-05-10T08:17:51.007Z,15.11
2019-05-10T08:18:49.730Z,15.06
2019-05-10T08:19:48.322Z,15.01
2019-05-10T08:20:53.900Z,14.95
2019-05-10T08:21:56.533Z,14.89
2019-05-10T08:22:49.273Z,14.81
2019-05-10T08:23:48.273Z,14.72
2019-05-10T08:24:54.400Z,14.63
2019-05-10T08:25:49.254Z,14.55
2019-05-10T08:26:48.230Z,14.48
2019-05-10T08:27:50.523Z,14.42
2019-05-10T08:28:49.219Z,14.36
2019-05-10T08:29:52.951Z,14.32
2019-05-10T08:30:53.687Z,14.27
2019-05-10T08:31:53.632Z,14.24
2019-05-10T08:32:49.165Z,14.22
2019-05-10T08:33:56.171Z,14.19
2019-05-10T08:34:53.010Z,14.18
2019-05-10T08:35:53.955Z,14.18
2019-05-10T08:36:49.123Z,14.16
2019-05-10T08:37:48.123Z,14.19
2019-05-10T08:38:58.932Z,14.20
2019-05-10T08:39:53.477Z,14.21
2019-05-10T08:40:49.090Z,14.24
2019-05-10T08:42:03.594Z,14.24
2019-05-10T08:43:00.184Z,14.25
2019-05-10T08:43:49.057Z,14.26
2019-05-10T08:44:53.728Z,14.29
2019-05-10T08:45:49.592Z,14.33
2019-05-10T08:46:48.027Z,14.35
2019-05-10T08:47:52.935Z,14.38
2019-05-10T08:48:53.079Z,14.44
2019-05-10T08:50:00.123Z,14.51
2019-05-10T08:50:54.309Z,14.56
2019-05-10T08:51:49.534Z,14.63
2019-05-10T08:52:47.952Z,14.70
2019-05-10T08:53:55.840Z,14.74
2019-05-10T08:54:48.932Z,14.82
2019-05-10T08:55:47.935Z,14.91
2019-05-10T08:56:54.980Z,14.97
2019-05-10T08:57:49.429Z,15.06
2019-05-10T08:58:47.891Z,15.15
2019-05-10T08:59:47.879Z,15.24
2019-05-10T09:00:54.655Z,15.34
2019-05-10T09:01:50.773Z,15.43
2019-05-10T09:02:47.846Z,15.52
2019-05-10T09:03:55.128Z,15.57
2019-05-10T09:04:50.341Z,15.64
2019-05-10T09:05:47.814Z,15.69
2019-05-10T09:06:55.523Z,15.74
2019-05-10T09:07:48.798Z,15.82
2019-05-10T09:08:52.805Z,15.89
2019-05-10T09:09:50.134Z,15.97
2019-05-10T09:10:47.759Z,16.04
2019-05-10T09:11:47.749Z,16.14
2019-05-10T09:12:57.615Z,16.26
2019-05-10T09:13:48.735Z,16.40
2019-05-10T09:14:48.858Z,16.55
2019-05-10T09:15:51.699Z,16.74
2019-05-10T09:16:59.308Z,16.92
2019-05-10T09:17:48.684Z,17.14
2019-05-10T09:18:51.211Z,17.36
2019-05-10T09:19:48.672Z,17.60
2019-05-10T09:20:47.652Z,17.86
2019-05-10T09:21:49.877Z,18.13
2019-05-10T09:22:47.633Z,18.33
2019-05-10T09:23:52.776Z,18.54
2019-05-10T09:24:49.969Z,18.73
2019-05-10T09:25:47.615Z,18.88
2019-05-10T09:26:52.855Z,19.02
2019-05-10T09:27:48.591Z,19.14
2019-05-10T09:28:52.654Z,19.28
2019-05-10T09:29:48.555Z,19.40
2019-05-10T09:30:58.695Z,19.49
2019-05-10T09:31:50.626Z,19.57
2019-05-10T09:32:47.522Z,19.68
2019-05-10T09:33:49.789Z,19.77
2019-05-10T09:34:47.521Z,19.89
2019-05-10T09:35:54.204Z,20.00
2019-05-10T09:36:48.479Z,20.14
2019-05-10T09:37:52.448Z,20.34
2019-05-10T09:38:48.468Z,20.62
2019-05-10T09:39:47.447Z,20.94
2019-05-10T09:40:52.945Z,21.32
2019-05-10T09:41:48.423Z,21.65
2019-05-10T09:42:47.415Z,21.94
2019-05-10T09:43:48.808Z,22.23
2019-05-10T09:44:47.412Z,22.51
2019-05-10T09:45:47.382Z,22.75
2019-05-10T09:46:47.372Z,22.96
2019-05-10T09:47:47.364Z,23.10
2019-05-10T09:48:47.351Z,23.20
2019-05-10T09:49:56.586Z,23.23
2019-05-10T09:50:48.339Z,23.30
2019-05-10T09:51:47.320Z,23.35
2019-05-10T09:52:47.307Z,23.26
2019-05-10T09:53:48.516Z,23.10
2019-05-10T09:54:49.469Z,22.93
2019-05-10T09:55:55.166Z,22.86
2019-05-10T09:56:52.039Z,23.01
2019-05-10T09:57:47.966Z,23.79
2019-05-10T09:58:48.229Z,24.67
2019-05-10T09:59:47.230Z,25.30
2019-05-10T10:00:48.518Z,25.85
2019-05-10T10:01:48.456Z,26.15
2019-05-10T10:02:55.919Z,26.37
2019-05-10T10:03:48.187Z,26.47
2019-05-10T10:04:47.448Z,26.43
2019-05-10T10:05:48.311Z,26.37
2019-05-10T10:06:51.193Z,26.27
2019-05-10T10:07:48.253Z,26.26
2019-05-10T10:08:51.235Z,26.13
2019-05-10T10:09:48.125Z,25.95
2019-05-10T10:10:47.673Z,25.71
2019-05-10T10:11:57.264Z,25.49
2019-05-10T10:12:48.090Z,25.25
2019-05-10T10:13:51.910Z,25.03
2019-05-10T10:14:48.067Z,24.76
2019-05-10T10:15:51.999Z,24.50
2019-05-10T10:16:57.894Z,24.21
2019-05-10T10:17:48.034Z,23.89
2019-05-10T10:18:47.782Z,23.61
2019-05-10T10:19:48.114Z,23.30
2019-05-10T10:20:48.082Z,22.96
2019-05-10T10:21:47.613Z,22.61
2019-05-10T10:22:49.642Z,22.32
2019-05-10T10:23:47.971Z,22.04
2019-05-10T10:24:49.054Z,21.80
2019-05-10T10:25:48.497Z,21.59
2019-05-10T10:26:48.172Z,21.39
2019-05-10T10:27:48.027Z,21.18
2019-05-10T10:28:49.679Z,20.96
2019-05-10T10:29:47.906Z,20.73
2019-05-10T10:30:50.352Z,20.49
2019-05-10T10:31:55.323Z,20.25
2019-05-10T10:32:47.873Z,20.03
2019-05-10T10:33:54.914Z,19.82
2019-05-10T10:34:52.458Z,19.57
2019-05-10T10:35:48.243Z,19.33
2019-05-10T10:36:47.491Z,19.13
2019-05-10T10:37:47.573Z,18.95
2019-05-10T10:38:49.487Z,18.76
2019-05-10T10:39:47.718Z,18.62
2019-05-10T10:40:46.791Z,18.46
2019-05-10T10:41:48.510Z,18.31
2019-05-10T10:42:47.317Z,18.20
2019-05-10T10:43:48.414Z,18.07
2019-05-10T10:44:48.340Z,17.97
2019-05-10T10:45:46.734Z,17.91
2019-05-10T10:46:47.995Z,17.87
2019-05-10T10:47:47.269Z,17.80
2019-05-10T10:48:49.151Z,17.72
2019-05-10T10:49:46.716Z,17.63
2019-05-10T10:50:51.238Z,17.60
2019-05-10T10:51:47.669Z,17.60
2019-05-10T10:52:46.659Z,17.66
2019-05-10T10:53:47.123Z,17.77
2019-05-10T10:54:47.966Z,17.91
2019-05-10T10:55:53.993Z,18.04
2019-05-10T10:56:48.328Z,18.17
2019-05-10T10:57:48.132Z,18.30
2019-05-10T10:58:49.663Z,18.44
2019-05-10T10:59:47.439Z,18.60
2019-05-10T11:00:48.170Z,18.70
2019-05-10T11:01:52.018Z,18.80
2019-05-10T11:02:52.069Z,18.88
2019-05-10T11:03:48.869Z,18.99
2019-05-10T11:04:48.811Z,19.04
2019-05-10T11:05:46.519Z,19.08
2019-05-10T11:06:46.508Z,19.02
2019-05-10T11:07:47.817Z,18.99
2019-05-10T11:08:46.487Z,18.98
2019-05-10T11:09:46.476Z,19.00
2019-05-10T11:10:46.469Z,19.05
2019-05-10T11:11:46.453Z,19.15
2019-05-10T11:12:46.443Z,19.28
2019-05-10T11:13:58.009Z,19.53
2019-05-10T11:14:47.421Z,19.81
2019-05-10T11:15:46.415Z,20.20
2019-05-10T11:16:51.728Z,20.60
2019-05-10T11:17:47.387Z,20.96
2019-05-10T11:18:46.379Z,21.31
2019-05-10T11:19:46.391Z,21.58
2019-05-10T11:20:49.211Z,21.89
2019-05-10T11:21:47.345Z,22.14
2019-05-10T11:22:49.742Z,22.42
2019-05-10T11:23:47.323Z,22.64
2019-05-10T11:24:51.746Z,22.81
2019-05-10T11:25:54.766Z,22.98
2019-05-10T11:26:47.291Z,23.12
2019-05-10T11:27:47.608Z,23.25
2019-05-10T11:28:47.269Z,23.36
2019-05-10T11:29:46.261Z,23.42
2019-05-10T11:30:46.249Z,23.47
2019-05-10T11:31:53.450Z,23.49
2019-05-10T11:32:47.227Z,23.54
2019-05-10T11:33:47.461Z,23.62
2019-05-10T11:34:47.204Z,23.71
2019-05-10T11:35:46.208Z,23.78
2019-05-10T11:36:48.124Z,23.86
2019-05-10T11:37:46.205Z,23.94
2019-05-10T11:38:47.041Z,24.02
2019-05-10T11:39:47.257Z,24.05
2019-05-10T11:40:46.144Z,24.01
2019-05-10T11:41:46.130Z,23.98
2019-05-10T11:42:47.655Z,23.98
2019-05-10T11:43:46.132Z,24.02
2019-05-10T11:44:50.289Z,24.07
2019-05-10T11:45:47.087Z,24.15
2019-05-10T11:46:46.077Z,24.26
2019-05-10T11:47:48.212Z,24.37
2019-05-10T11:48:47.077Z,24.51
2019-05-10T11:49:46.057Z,24.62
2019-05-10T11:50:46.034Z,24.74
2019-05-10T11:51:48.020Z,24.89
2019-05-10T11:52:47.012Z,25.01
2019-05-10T11:53:48.820Z,25.07
2019-05-10T11:54:47.011Z,25.09
2019-05-10T11:55:45.994Z,25.10
2019-05-10T11:56:45.969Z,25.08
2019-05-10T11:58:00.806Z,25.00
2019-05-10T11:58:53.162Z,24.89
2019-05-10T11:59:46.934Z,24.78
2019-05-10T12:00:45.935Z,24.66
2019-05-10T12:01:56.863Z,24.54
2019-05-10T12:03:46.891Z,24.27
2019-05-10T12:04:45.884Z,24.07
2019-05-10T12:05:53.174Z,23.88
2019-05-10T12:06:51.416Z,23.75
2019-05-10T12:07:46.214Z,23.62
2019-05-10T12:08:45.841Z,23.53
2019-05-10T12:09:53.443Z,23.51
2019-05-10T12:10:52.794Z,23.48
2019-05-10T12:11:51.647Z,23.45
2019-05-10T12:13:04.960Z,23.48
2019-05-10T12:13:46.796Z,23.53
2019-05-10T12:14:46.679Z,23.55
2019-05-10T12:15:45.761Z,23.55
2019-05-10T12:16:45.751Z,23.58
2019-05-10T12:17:47.630Z,23.53
2019-05-10T12:19:05.491Z,23.47
2019-05-10T12:19:50.418Z,23.41
2019-05-10T12:20:56.550Z,23.35
2019-05-10T12:21:46.748Z,23.28
2019-05-10T12:22:47.370Z,23.27
2019-05-10T12:23:50.666Z,23.27
2019-05-10T12:25:14.144Z,23.27
2019-05-10T12:25:59.689Z,24.42
2019-05-10T12:26:16.688Z,23.29
2019-05-10T12:27:49.192Z,23.34
2019-05-10T12:28:46.622Z,23.33
2019-05-10T12:29:46.633Z,23.29
2019-05-10T12:30:46.611Z,23.22
2019-05-10T12:31:47.522Z,23.09
2019-05-10T12:32:56.187Z,23.00
2019-05-10T12:33:46.571Z,22.92
2019-05-10T12:34:46.052Z,22.84
2019-05-10T12:35:47.341Z,22.73
2019-05-10T12:36:45.561Z,22.59
2019-05-10T12:37:51.413Z,22.45
2019-05-10T12:38:46.515Z,22.29
2019-05-10T12:39:45.505Z,22.10
2019-05-10T12:40:45.969Z,21.91
2019-05-10T12:41:49.623Z,21.74
2019-05-10T12:42:47.126Z,21.58
2019-05-10T12:43:48.403Z,21.44
2019-05-10T12:44:48.008Z,21.31
2019-05-10T12:45:45.441Z,21.18
2019-05-10T12:46:45.430Z,21.07
2019-05-10T12:47:45.421Z,20.93
2019-05-10T12:48:45.421Z,20.78
2019-05-10T12:49:45.404Z,20.64
2019-05-10T12:50:45.398Z,20.49
2019-05-10T12:51:45.376Z,20.32
2019-05-10T12:52:50.343Z,20.14
2019-05-10T12:53:49.268Z,19.98